Time;durP1;ratioP1;P1;durP2;ratioP2;P2;SDS_P1;SDS_P2;PMS_P1;PMS_P2;Temp;Humidity;BMP_temperature;BMP_pressure;BME280_temperature;BME280_humidity;BME280_pressure;Samples;Min_cycle;Max_cycle;Signal;HPM_P1;HPM_P2
2022/03/01 00:00:13;;;;;;;8.07;5.95;;;;;;;6.42;45.77;102561.31;5031415;28;20064;-81
2022/03/01 00:02:39;;;;;;;7.40;5.57;;;;;;;6.88;45.51;102643.91;5027745;28;20491;-81
2022/03/01 00:05:07;;;;;;;7.80;5.78;;;;;;;6.84;45.94;102644.94;5027880;28;20057;-80
2022/03/01 00:07:34;;;;;;;5.97;5.22;;;;;;;6.94;44.89;102633.09;5027662;28;20049;-78
2022/03/01 00:10:01;;;;;;;6.78;4.88;;;;;;;6.78;44.47;102610.88;5029462;28;20447;-81
2022/03/01 00:12:29;;;;;;;5.72;4.40;;;;;;;6.19;44.13;102512.97;5030707;28;20136;-82
2022/03/01 00:14:55;;;;;;;8.23;4.18;;;;;;;7.15;43.85;102648.97;5021821;28;20092;-81
2022/03/01 00:17:22;;;;;;;7.45;5.20;;;;;;;7.08;43.53;102643.06;5007568;28;20097;-81
2022/03/01 00:19:49;;;;;;;7.15;4.35;;;;;;;7.15;43.13;102657.75;5007637;28;20590;-81
2022/03/01 00:22:15;;;;;;;5.43;4.28;;;;;;;6.78;43.23;102595.91;5007696;28;20772;-81
2022/03/01 00:24:42;;;;;;;9.15;4.43;;;;;;;6.99;43.23;102644.31;5007502;28;20104;-81
2022/03/01 00:27:09;;;;;;;6.07;4.18;;;;;;;7.14;42.83;102668.38;5007502;28;20128;-80
2022/03/01 00:29:35;;;;;;;8.05;4.40;;;;;;;7.03;42.59;102653.81;5007223;28;20100;-81
2022/03/01 00:32:02;;;;;;;4.40;3.92;;;;;;;7.32;42.36;102691.38;5007495;28;20145;-81
2022/03/01 00:34:29;;;;;;;4.50;3.45;;;;;;;6.92;42.34;102644.63;5007453;28;20475;-81
2022/03/01 00:36:56;;;;;;;4.90;4.10;;;;;;;7.24;41.99;102704.06;5007051;28;20149;-81
2022/03/01 00:39:22;;;;;;;6.22;4.25;;;;;;;6.98;42.30;102645.22;5007516;28;20060;-81
2022/03/01 00:41:49;;;;;;;6.13;4.22;;;;;;;7.13;42.11;102693.91;5007399;28;20060;-82
2022/03/01 00:44:16;;;;;;;4.63;3.90;;;;;;;7.21;41.31;102680.41;5008919;28;20503;-81
2022/03/01 00:46:43;;;;;;;7.65;3.95;;;;;;;6.96;41.80;102657.63;5008751;28;20084;-80
2022/03/01 00:49:10;;;;;;;4.97;4.38;;;;;;;6.88;41.34;102637.75;5007657;28;20406;-81
2022/03/01 00:51:36;;;;;;;7.00;4.30;;;;;;;7.07;41.59;102671.28;5008677;28;20081;-81
2022/03/01 00:54:04;;;;;;;5.88;4.07;;;;;;;6.89;41.36;102648.25;5007744;28;20137;-80
2022/03/01 00:56:31;;;;;;;7.25;4.63;;;;;;;6.98;41.93;102661.06;5007967;28;20058;-82
2022/03/01 00:58:58;;;;;;;6.20;4.35;;;;;;;7.12;41.53;102679.00;5008544;28;20137;-81
2022/03/01 01:01:25;;;;;;;6.40;3.85;;;;;;;7.12;41.58;102678.16;5008570;28;20112;-81
2022/03/01 01:03:52;;;;;;;4.50;3.40;;;;;;;6.49;41.65;102583.88;5025170;28;20061;-81
2022/03/01 01:06:19;;;;;;;9.70;4.70;;;;;;;6.97;41.97;102659.38;5010302;28;20136;-80
2022/03/01 01:08:46;;;;;;;6.95;4.32;;;;;;;7.03;42.25;102669.66;5010167;28;20053;-82
2022/03/01 01:11:13;;;;;;;5.75;4.78;;;;;;;6.92;41.77;102663.09;5010598;28;20513;-81
2022/03/01 01:13:40;;;;;;;5.72;3.65;;;;;;;7.12;42.44;102681.66;5010090;28;20480;-80
2022/03/01 01:16:06;;;;;;;4.95;3.95;;;;;;;7.15;42.29;102678.88;5027264;28;20072;-81
2022/03/01 01:18:33;;;;;;;6.68;4.20;;;;;;;6.38;42.17;102564.97;5029818;28;20122;-81
2022/03/01 01:21:00;;;;;;;4.75;4.30;;;;;;;7.05;42.03;102678.38;5029567;28;20429;-81
2022/03/01 01:23:26;;;;;;;7.78;4.10;;;;;;;6.37;41.52;102565.91;5047011;28;20227;-82
2022/03/01 01:25:53;;;;;;;5.45;3.92;;;;;;;6.55;41.13;102593.31;5029493;28;20402;-80
2022/03/01 01:28:19;;;;;;;4.75;4.05;;;;;;;6.61;40.28;102624.75;5029714;28;20049;-80
2022/03/01 01:30:46;;;;;;;4.22;3.83;;;;;;;6.50;39.97;102611.97;5047310;28;20055;-81
2022/03/01 01:33:15;;;;;;;4.82;4.15;;;;;;;6.83;40.06;102677.56;5030288;28;20049;-80
2022/03/01 01:35:41;;;;;;;7.18;3.92;;;;;;;6.93;39.78;102694.72;5029878;28;20490;-81
2022/03/01 01:38:08;;;;;;;3.72;3.42;;;;;;;6.76;39.53;102670.78;5030126;28;20135;-81
2022/03/01 01:40:35;;;;;;;5.85;4.10;;;;;;;6.80;39.84;102685.59;5029694;28;20602;-81
2022/03/01 01:43:04;;;;;;;4.50;4.07;;;;;;;6.87;39.64;102705.56;5029510;28;20055;-79
2022/03/01 01:45:32;;;;;;;4.75;3.80;;;;;;;6.72;39.64;102690.31;5029838;28;20080;-82
2022/03/01 01:48:00;;;;;;;7.85;4.03;;;;;;;6.79;39.98;102712.91;5029405;28;20172;-79
2022/03/01 01:50:29;;;;;;;4.00;3.45;;;;;;;6.75;39.78;102716.59;5047042;28;20048;-80
2022/03/01 01:52:56;;;;;;;7.20;4.05;;;;;;;6.53;39.77;102696.31;5029562;28;20257;-82
2022/03/01 01:55:25;;;;;;;5.65;3.97;;;;;;;6.59;40.46;102714.53;5046989;28;20051;-81
2022/03/01 01:57:57;;;;;;;4.20;3.63;;;;;;;6.01;40.36;102634.13;5047323;28;20545;-81
2022/03/01 02:00:24;;;;;;;4.97;4.22;;;;;;;6.56;40.76;102712.03;5029752;28;20122;-81
2022/03/01 02:02:51;;;;;;;5.18;4.25;;;;;;;5.77;40.38;102595.38;5047087;28;20166;-82
2022/03/01 02:05:19;;;;;;;4.68;4.20;;;;;;;6.44;40.41;102709.00;5013304;28;20049;-82
2022/03/01 02:07:48;;;;;;;5.00;4.50;;;;;;;6.29;40.62;102707.81;5030270;28;20335;-81
2022/03/01 02:10:16;;;;;;;6.10;4.22;;;;;;;5.97;41.36;102667.63;5030495;28;20151;-82
2022/03/01 02:12:45;;;;;;;4.32;3.92;;;;;;;6.23;41.04;102711.50;5030416;28;20049;-82
2022/03/01 02:15:14;;;;;;;4.43;3.55;;;;;;;5.38;40.84;102570.50;5037188;28;20136;-81
2022/03/01 02:17:42;;;;;;;5.40;4.20;;;;;;;6.26;41.10;102719.31;5009589;28;20526;-82
2022/03/01 02:20:29;;;;;;;4.65;4.07;;;;;;;6.18;41.25;102711.69;5009386;28;20299;-83
2022/03/01 02:22:56;;;;;;;4.90;4.13;;;;;;;5.98;41.09;102682.56;5026385;28;20465;-80
2022/03/01 02:25:23;;;;;;;5.43;3.75;;;;;;;5.78;41.40;102659.53;5026941;28;20049;-80
2022/03/01 02:27:50;;;;;;;5.50;4.40;;;;;;;6.07;41.16;102702.44;5026481;28;20510;-82
2022/03/01 02:30:17;;;;;;;4.00;3.60;;;;;;;5.78;41.71;102670.06;5009561;28;20050;-81
2022/03/01 02:32:44;;;;;;;9.00;4.28;;;;;;;5.59;41.54;102632.97;5009220;28;20425;-81
2022/03/01 02:35:13;;;;;;;3.88;3.42;;;;;;;5.85;41.39;102671.56;5009183;28;20046;-80
2022/03/01 02:37:42;;;;;;;6.28;3.58;;;;;;;5.80;41.34;102673.47;5009134;28;20059;-81
2022/03/01 02:40:09;;;;;;;4.85;4.05;;;;;;;5.82;41.63;102681.34;5009143;28;20636;-81
2022/03/01 02:42:37;;;;;;;5.38;4.13;;;;;;;5.91;41.72;102708.22;5026646;28;20137;-81
2022/03/01 02:45:07;;;;;;;7.82;3.65;;;;;;;5.73;41.82;102678.13;5009020;28;20124;-81
2022/03/01 02:47:35;;;;;;;6.93;4.70;;;;;;;5.53;41.73;102651.59;5026774;28;20065;-80
2022/03/01 02:50:03;;;;;;;5.95;3.95;;;;;;;5.86;41.95;102715.44;5009211;28;20049;-79
2022/03/01 02:52:30;;;;;;;5.63;4.78;;;;;;;5.62;42.05;102675.00;5009232;28;20136;-81
2022/03/01 02:55:05;;;;;;;6.30;4.00;;;;;;;4.96;42.01;102563.19;5009147;28;20505;-80
2022/03/01 02:57:32;;;;;;;5.47;4.15;;;;;;;5.61;42.70;102665.38;5008673;28;20049;-82
2022/03/01 02:59:58;;;;;;;4.30;3.90;;;;;;;5.66;42.94;102681.91;5026260;28;20459;-81
2022/03/01 03:02:25;;;;;;;5.20;4.25;;;;;;;5.52;43.43;102676.25;5026293;28;20072;-80
2022/03/01 03:04:52;;;;;;;4.35;3.80;;;;;;;5.51;42.26;102666.59;5009564;28;20148;-80
2022/03/01 03:07:18;;;;;;;4.95;4.07;;;;;;;5.63;43.33;102699.56;5008665;28;20140;-81
2022/03/01 03:09:45;;;;;;;4.93;3.97;;;;;;;5.66;42.61;102707.41;5009081;28;20103;-80
2022/03/01 03:12:12;;;;;;;5.70;3.88;;;;;;;5.86;41.76;102709.31;5009122;28;20081;-81
2022/03/01 03:14:38;;;;;;;5.40;3.45;;;;;;;5.81;41.47;102701.56;5017528;28;20041;-82
2022/03/01 03:17:05;;;;;;;6.07;4.30;;;;;;;5.57;40.68;102658.50;5032103;28;20045;-81
2022/03/01 03:19:32;;;;;;;4.63;3.88;;;;;;;5.12;40.83;102593.31;5032676;28;20045;-80
2022/03/01 03:22:00;;;;;;;5.30;3.53;;;;;;;5.83;41.08;102722.63;5032085;28;20041;-81
2022/03/01 03:24:26;;;;;;;8.13;3.83;;;;;;;5.76;40.64;102721.97;5031801;28;20145;-81
2022/03/01 03:26:53;;;;;;;3.80;3.42;;;;;;;5.57;40.76;102712.03;5031541;28;20053;-81
2022/03/01 03:29:19;;;;;;;4.30;3.90;;;;;;;5.63;40.83;102728.56;5032008;28;20055;-81
2022/03/01 03:31:47;;;;;;;7.40;3.97;;;;;;;5.57;41.03;102733.13;5032201;28;20063;-81
2022/03/01 03:34:13;;;;;;;9.48;4.47;;;;;;;5.55;41.06;102731.47;5032267;28;20135;-80
2022/03/01 03:36:42;;;;;;;5.17;3.97;;;;;;;5.37;41.36;102701.34;5049702;28;20048;-81
2022/03/01 03:39:10;;;;;;;5.47;4.13;;;;;;;5.21;41.22;102661.47;5049504;28;20045;-81
2022/03/01 03:41:37;;;;;;;4.82;3.60;;;;;;;5.61;40.65;102728.63;5031879;28;20080;-81
2022/03/01 03:44:05;;;;;;;8.15;4.53;;;;;;;4.60;40.96;102556.44;5049467;28;20075;-82
2022/03/01 03:46:31;;;;;;;4.88;4.10;;;;;;;5.35;40.85;102695.25;5032069;28;20107;-81
2022/03/01 03:48:58;;;;;;;4.20;3.38;;;;;;;5.39;41.26;102719.69;5049272;28;20081;-81
2022/03/01 03:51:25;;;;;;;5.70;3.97;;;;;;;5.25;41.61;102699.13;5031768;28;20144;-80
2022/03/01 03:53:54;;;;;;;6.20;4.43;;;;;;;5.43;41.48;102737.13;5049171;28;20056;-81
2022/03/01 03:56:20;;;;;;;5.43;4.80;;;;;;;5.20;41.89;102715.06;5031344;28;20044;-81
2022/03/01 03:58:47;;;;;;;7.70;4.87;;;;;;;5.14;42.51;102715.25;5031316;28;20057;-81
2022/03/01 04:01:13;;;;;;;10.47;5.70;;;;;;;4.97;42.72;102696.50;5031376;28;20143;-80
2022/03/01 04:03:40;;;;;;;9.50;5.73;;;;;;;5.20;42.85;102746.66;5031126;28;20059;-80
2022/03/01 04:06:07;;;;;;;13.15;5.45;;;;;;;4.96;43.34;102715.84;5031011;28;20084;-81
2022/03/01 04:08:34;;;;;;;5.77;4.43;;;;;;;5.16;43.50;102745.03;5048567;28;20399;-80
2022/03/01 04:11:01;;;;;;;7.37;4.63;;;;;;;5.07;43.85;102732.16;5031453;28;20510;-81
2022/03/01 04:13:27;;;;;;;5.93;4.53;;;;;;;4.93;44.42;102722.94;5031902;28;20056;-80
2022/03/01 04:15:54;;;;;;;4.93;4.43;;;;;;;4.93;44.50;102732.59;5033323;28;20353;-80
2022/03/01 04:18:21;;;;;;;8.83;4.80;;;;;;;4.43;44.84;102654.31;5011787;28;20081;-81
2022/03/01 04:20:47;;;;;;;5.65;4.15;;;;;;;5.08;45.20;102760.22;5028714;28;20065;-81
2022/03/01 04:23:14;;;;;;;7.33;4.73;;;;;;;4.65;45.19;102695.75;5010903;28;20505;-81
2022/03/01 04:25:41;;;;;;;11.43;4.50;;;;;;;5.03;45.39;102764.78;5028943;28;20144;-81
2022/03/01 04:28:07;;;;;;;9.30;4.53;;;;;;;5.01;45.90;102758.69;5011034;28;20085;-82
2022/03/01 04:30:34;;;;;;;4.67;4.27;;;;;;;4.97;45.83;102749.16;5011122;28;20242;-81
2022/03/01 04:33:01;;;;;;;6.15;4.55;;;;;;;4.79;45.63;102719.88;5028647;28;20077;-81
2022/03/01 04:35:27;;;;;;;6.57;5.00;;;;;;;4.80;45.97;102726.84;5028361;28;20093;-81
2022/03/01 04:37:54;;;;;;;6.63;4.60;;;;;;;4.58;46.71;102702.09;5028184;28;20495;-81
2022/03/01 04:40:21;;;;;;;6.23;4.50;;;;;;;4.41;45.81;102695.56;5028944;28;20128;-81
2022/03/01 04:42:49;;;;;;;8.13;4.27;;;;;;;4.82;45.90;102771.53;5014436;28;20075;-81
2022/03/01 04:45:16;;;;;;;6.67;4.43;;;;;;;4.49;45.89;102698.84;5021572;28;20057;-80
2022/03/01 04:47:44;;;;;;;9.07;4.73;;;;;;;4.70;45.56;102746.44;5015063;28;20355;-81
2022/03/01 04:50:11;;;;;;;5.50;4.53;;;;;;;4.74;45.52;102758.63;5030639;28;20128;-81
2022/03/01 04:52:38;;;;;;;5.07;4.50;;;;;;;4.56;45.95;102735.47;5010958;28;20136;-80
2022/03/01 04:55:05;;;;;;;8.43;5.60;;;;;;;3.80;46.25;102626.38;5010676;28;20167;-82
2022/03/01 04:57:32;;;;;;;5.43;4.60;;;;;;;4.67;46.01;102752.66;5010484;28;20136;-80
2022/03/01 04:59:58;;;;;;;6.43;5.60;;;;;;;4.66;46.19;102764.13;5010731;28;20281;-81
2022/03/01 05:02:25;;;;;;;6.40;5.63;;;;;;;4.69;46.33;102766.66;5010018;28;20313;-81
2022/03/01 05:04:52;;;;;;;7.03;5.57;;;;;;;3.98;46.09;102657.41;5027821;28;20041;-81
2022/03/01 05:07:18;;;;;;;7.27;5.23;;;;;;;4.58;46.24;102767.88;5010175;28;20144;-80
2022/03/01 05:09:45;;;;;;;6.20;4.97;;;;;;;4.34;46.71;102727.34;5010346;28;20258;-80
2022/03/01 05:12:12;;;;;;;6.30;5.23;;;;;;;4.39;47.20;102757.00;5027595;28;20645;-81
2022/03/01 05:14:38;;;;;;;7.43;5.13;;;;;;;4.33;47.28;102741.41;5015060;28;20303;-80
2022/03/01 05:17:05;;;;;;;6.57;4.90;;;;;;;4.38;46.54;102747.41;5029560;28;20060;-82
2022/03/01 05:19:33;;;;;;;6.17;5.20;;;;;;;4.22;47.01;102723.31;5029960;28;20134;-80
2022/03/01 05:22:00;;;;;;;6.53;4.93;;;;;;;4.27;46.87;102732.81;5029831;28;20057;-80
2022/03/01 05:24:27;;;;;;;7.17;5.23;;;;;;;3.75;46.72;102651.91;5047107;28;20136;-81
2022/03/01 05:26:54;;;;;;;8.67;5.43;;;;;;;4.40;46.78;102748.22;5047396;28;20045;-80
2022/03/01 05:29:21;;;;;;;6.23;4.97;;;;;;;4.37;46.92;102757.06;5029678;28;20135;-82
2022/03/01 05:31:48;;;;;;;5.77;4.93;;;;;;;4.47;46.48;102755.88;5029632;28;20490;-79
2022/03/01 05:34:38;;;;;;;7.23;5.90;;;;;;;4.25;46.04;102705.69;5006822;28;20140;-81
2022/03/01 05:37:05;;;;;;;9.30;5.00;;;;;;;3.16;46.15;102544.97;5008912;28;20252;-79
2022/03/01 05:39:32;;;;;;;7.90;5.03;;;;;;;4.42;46.15;102757.78;4988117;28;20053;-78
2022/03/01 05:41:58;;;;;;;6.50;5.03;;;;;;;4.23;46.01;102730.31;5005255;28;20144;-78
2022/03/01 05:44:25;;;;;;;7.13;5.43;;;;;;;4.26;46.12;102735.47;4987497;28;20156;-81
2022/03/01 05:46:52;;;;;;;9.97;5.50;;;;;;;4.45;45.76;102762.97;4987732;28;20056;-81
2022/03/01 05:49:19;;;;;;;5.57;5.00;;;;;;;3.69;45.68;102624.06;4987239;28;20042;-79
2022/03/01 05:51:45;;;;;;;8.70;5.60;;;;;;;4.36;46.03;102736.91;4987322;28;20105;-80
2022/03/01 05:54:12;;;;;;;6.77;4.97;;;;;;;3.79;46.63;102677.22;5004982;28;20148;-80
2022/03/01 05:56:39;;;;;;;10.03;5.60;;;;;;;4.31;45.88;102753.75;4987636;28;20527;-79
2022/03/01 05:59:06;;;;;;;7.13;5.50;;;;;;;4.04;46.37;102708.91;4996966;28;20060;-81
2022/03/01 06:01:33;;;;;;;8.93;5.37;;;;;;;4.25;46.59;102755.66;5024361;28;20144;-81
2022/03/01 06:04:02;;;;;;;7.80;5.47;;;;;;;4.35;46.20;102777.28;5007074;28;20526;-80
2022/03/01 06:06:28;;;;;;;7.10;5.80;;;;;;;3.95;46.17;102710.03;5007243;28;20718;-81
2022/03/01 06:08:55;;;;;;;6.20;5.53;;;;;;;2.80;46.58;102531.91;5026430;28;20050;-81
2022/03/01 06:11:22;;;;;;;8.17;5.70;;;;;;;3.86;46.78;102702.41;5012870;28;20053;-80
2022/03/01 06:13:49;;;;;;;8.13;6.07;;;;;;;3.65;46.66;102656.56;5026499;28;20136;-80
2022/03/01 06:16:15;;;;;;;6.30;5.70;;;;;;;4.11;46.48;102741.16;5026130;28;20080;-80
2022/03/01 06:18:42;;;;;;;7.80;6.13;;;;;;;4.29;47.26;102783.56;5026627;28;20045;-76
2022/03/01 06:21:09;;;;;;;7.93;6.40;;;;;;;4.38;46.67;102773.72;5026624;28;20059;-81
2022/03/01 06:23:36;;;;;;;9.00;5.97;;;;;;;4.24;47.25;102769.69;5026249;28;20176;-80
2022/03/01 06:26:02;;;;;;;9.00;5.97;;;;;;;4.27;47.40;102781.88;5044236;28;20126;-80
2022/03/01 06:28:30;;;;;;;7.03;5.67;;;;;;;4.00;47.44;102750.19;5029943;28;20048;-80
2022/03/01 06:30:56;;;;;;;9.37;6.00;;;;;;;4.29;46.83;102772.19;5026331;28;20159;-82
2022/03/01 06:33:23;;;;;;;7.20;5.90;;;;;;;4.37;46.76;102780.75;5010932;28;20045;-79
2022/03/01 06:35:50;;;;;;;7.97;6.27;;;;;;;4.26;46.66;102788.06;5024849;28;20111;-80
2022/03/01 06:38:17;;;;;;;10.83;7.37;;;;;;;4.33;46.95;102778.22;5009910;28;20049;-81
2022/03/01 06:40:43;;;;;;;13.70;6.10;;;;;;;3.62;46.77;102659.28;5027893;28;20089;-80
2022/03/01 06:43:18;;;;;;;7.57;6.07;;;;;;;4.40;46.56;102780.66;5012147;28;20057;-80
2022/03/01 06:45:44;;;;;;;7.07;5.93;;;;;;;4.35;46.88;102777.28;5006841;28;20049;-79
2022/03/01 06:48:11;;;;;;;10.53;6.60;;;;;;;4.35;46.39;102781.69;5007767;28;20046;-78
2022/03/01 06:50:38;;;;;;;10.83;6.20;;;;;;;4.29;46.95;102782.69;5010542;28;20051;-79
2022/03/01 06:53:06;;;;;;;11.23;6.33;;;;;;;4.25;46.60;102765.31;5010130;28;20045;-81
2022/03/01 06:55:33;;;;;;;7.90;5.53;;;;;;;4.34;47.10;102793.94;5010134;28;20645;-79
2022/03/01 06:58:00;;;;;;;8.30;5.57;;;;;;;4.40;46.60;102785.91;5010180;28;20060;-79
2022/03/01 07:00:51;;;;;;;9.43;6.20;;;;;;;4.46;46.65;102777.81;5013801;28;20541;-78
2022/03/01 07:03:18;;;;;;;9.17;5.87;;;;;;;4.60;45.90;102797.63;5009941;28;20057;-80
2022/03/01 07:05:45;;;;;;;8.00;6.33;;;;;;;4.76;45.80;102798.91;5009687;28;20070;-82
2022/03/01 07:08:13;;;;;;;7.77;5.77;;;;;;;4.70;45.86;102801.72;5009757;28;20041;-81
2022/03/01 07:10:41;;;;;;;10.43;6.03;;;;;;;4.52;45.62;102776.81;5009885;28;20574;-79
2022/03/01 07:13:08;;;;;;;7.33;5.53;;;;;;;4.79;45.38;102797.97;5009341;28;20730;-80
2022/03/01 07:15:59;;;;;;;10.17;5.77;;;;;;;4.81;45.58;102797.00;5027873;28;20048;-82
2022/03/01 07:18:25;;;;;;;8.27;5.77;;;;;;;4.79;44.92;102793.53;5027128;28;20230;-82
2022/03/01 07:20:52;;;;;;;7.07;6.03;;;;;;;4.89;45.18;102817.81;5010230;28;20596;-82
2022/03/01 07:26:15;;;;;;;6.23;5.20;;;;;;;4.79;45.48;102798.81;5014378;28;20107;-76
2022/03/01 07:28:41;;;;;;;9.30;5.53;;;;;;;4.96;44.80;102803.56;5029130;28;20055;-85
2022/03/01 07:31:08;;;;;;;8.97;6.37;;;;;;;5.15;44.83;102824.94;5011772;28;20049;-79
2022/03/01 07:33:35;;;;;;;7.67;5.83;;;;;;;5.06;44.68;102797.13;5010220;28;20046;-80
2022/03/01 07:36:02;;;;;;;7.80;5.93;;;;;;;4.67;44.71;102746.56;5011517;28;20145;-81
2022/03/01 07:38:29;;;;;;;7.67;6.13;;;;;;;5.12;44.78;102827.66;5028729;28;20140;-79
2022/03/01 07:40:56;;;;;;;11.67;6.57;;;;;;;5.14;45.07;102825.84;5011481;28;20041;-79
2022/03/01 07:43:22;;;;;;;8.80;6.43;;;;;;;4.80;44.84;102752.28;5011175;28;20056;-78
2022/03/01 07:45:49;;;;;;;9.37;6.83;;;;;;;4.65;44.96;102733.44;5014020;28;20038;-78
2022/03/01 07:48:16;;;;;;;7.83;5.57;;;;;;;5.19;45.05;102812.53;5023802;28;20590;-79
2022/03/01 07:50:42;;;;;;;9.10;6.50;;;;;;;5.16;44.97;102799.47;5034813;28;20179;-80
2022/03/01 07:53:09;;;;;;;8.53;6.60;;;;;;;4.84;44.76;102739.00;5021917;28;20065;-79
2022/03/01 07:55:36;;;;;;;6.83;5.23;;;;;;;5.54;43.77;102821.97;5012496;28;20107;-79
2022/03/01 07:58:03;;;;;;;7.40;6.60;;;;;;;5.03;43.74;102746.34;5029014;28;20067;-79
2022/03/01 08:00:29;;;;;;;12.27;6.43;;;;;;;5.38;43.60;102791.75;5028889;28;20168;-78
2022/03/01 08:02:58;;;;;;;8.77;6.60;;;;;;;5.76;43.21;102817.72;5016382;28;20049;-78
2022/03/01 08:05:25;;;;;;;9.47;5.50;;;;;;;5.59;42.66;102775.25;5013423;28;20050;-78
2022/03/01 08:07:56;;;;;;;7.77;6.60;;;;;;;5.77;42.88;102806.22;5011887;28;20064;-80
2022/03/01 08:10:23;;;;;;;7.30;6.37;;;;;;;5.31;42.96;102730.50;5011157;28;20679;-81
2022/03/01 08:12:53;;;;;;;8.33;6.80;;;;;;;5.77;43.44;102814.16;5011851;28;20049;-80
2022/03/01 08:15:20;;;;;;;8.70;7.03;;;;;;;5.66;43.19;102784.66;5011459;28;20054;-79
2022/03/01 08:17:51;;;;;;;9.37;6.87;;;;;;;5.73;43.19;102799.38;5027957;28;20136;-80
2022/03/01 08:20:19;;;;;;;9.30;6.78;;;;;;;5.32;43.33;102738.38;5010809;28;20470;-80
2022/03/01 08:22:47;;;;;;;9.83;6.70;;;;;;;5.91;42.82;102807.56;5011662;28;20049;-80
2022/03/01 08:25:14;;;;;;;7.87;6.97;;;;;;;5.56;42.55;102749.00;5011853;28;20606;-78
2022/03/01 08:27:40;;;;;;;9.23;6.87;;;;;;;5.83;42.65;102788.53;5011394;28;20495;-79
2022/03/01 08:30:08;;;;;;;8.00;6.40;;;;;;;5.90;42.59;102800.56;5010802;28;20060;-80
2022/03/01 08:32:35;;;;;;;8.93;6.43;;;;;;;5.94;42.74;102796.94;5028636;28;20068;-80
2022/03/01 08:35:03;;;;;;;9.80;7.30;;;;;;;5.73;42.83;102757.19;5011146;28;20136;-80
2022/03/01 08:37:30;;;;;;;8.90;6.63;;;;;;;5.91;42.91;102775.94;5009557;28;20354;-80
2022/03/01 08:39:57;;;;;;;8.60;6.97;;;;;;;6.16;42.87;102808.44;5010814;28;20061;-79
2022/03/01 08:42:24;;;;;;;8.50;6.53;;;;;;;5.37;42.51;102658.34;5029206;28;20080;-80
2022/03/01 08:45:10;;;;;;;9.53;6.90;;;;;;;6.33;41.92;102809.63;5010696;28;20103;-80
2022/03/01 08:47:39;;;;;;;7.73;5.87;;;;;;;6.44;41.04;102811.91;5011659;28;20061;-80
2022/03/01 08:50:06;;;;;;;7.83;6.47;;;;;;;6.38;40.84;102786.59;5012118;28;20124;-80
2022/03/01 08:52:53;;;;;;;6.87;6.17;;;;;;;6.32;41.17;102765.72;5014240;28;20124;-82
2022/03/01 08:55:19;;;;;;;6.53;5.83;;;;;;;6.44;40.71;102799.56;5010420;28;20057;-81
2022/03/01 08:57:46;;;;;;;10.17;6.80;;;;;;;6.62;40.89;102792.75;5009752;28;20069;-82
2022/03/01 09:00:15;;;;;;;7.93;6.57;;;;;;;6.51;41.24;102772.03;5010239;28;20610;-78
2022/03/01 09:02:42;;;;;;;7.33;6.63;;;;;;;6.45;41.41;102761.69;5009903;28;20168;-79
2022/03/01 09:05:10;;;;;;;8.07;6.47;;;;;;;6.58;41.11;102768.25;5008449;28;20112;-79
2022/03/01 09:07:37;;;;;;;8.43;6.37;;;;;;;6.60;41.59;102765.53;5010340;28;20049;-79
2022/03/01 09:10:06;;;;;;;12.60;7.30;;;;;;;6.64;41.47;102772.44;5009472;28;20417;-79
2022/03/01 09:12:33;;;;;;;12.10;7.70;;;;;;;6.98;41.56;102808.09;5010045;28;20049;-78
2022/03/01 09:15:00;;;;;;;11.03;8.20;;;;;;;7.15;40.69;102803.03;5009675;28;20511;-79
2022/03/01 09:17:29;;;;;;;11.37;7.73;;;;;;;6.67;41.00;102708.09;5009447;28;20045;-79
2022/03/01 09:19:55;;;;;;;9.23;7.88;;;;;;;7.13;40.63;102761.75;5009186;28;20143;-80
2022/03/01 09:22:22;;;;;;;8.27;6.70;;;;;;;6.87;40.76;102702.91;5009147;28;20437;-80
2022/03/01 09:24:49;;;;;;;11.68;7.40;;;;;;;7.47;40.87;102796.44;5027110;28;20418;-80
2022/03/01 09:27:15;;;;;;;10.82;7.93;;;;;;;7.45;41.14;102771.88;5011403;28;20525;-79
2022/03/01 09:29:44;;;;;;;18.38;7.78;;;;;;;7.27;40.67;102699.50;5011430;28;20064;-80
2022/03/01 09:32:10;;;;;;;8.05;6.10;;;;;;;7.62;39.38;102751.78;5010029;28;20576;-80
2022/03/01 09:34:41;;;;;;;8.20;6.88;;;;;;;7.80;39.66;102745.72;5011563;28;20053;-80
2022/03/01 09:37:08;;;;;;;7.85;6.50;;;;;;;8.06;39.38;102751.69;5009745;28;20096;-79
2022/03/01 09:39:35;;;;;;;12.40;7.60;;;;;;;8.28;39.27;102757.75;5009802;28;20535;-78
2022/03/01 09:42:02;;;;;;;9.05;6.95;;;;;;;8.49;38.29;102770.94;5028165;28;20045;-80
2022/03/01 09:44:29;;;;;;;8.18;7.05;;;;;;;8.46;38.03;102750.78;5028070;28;20142;-79
2022/03/01 09:46:56;;;;;;;11.00;6.05;;;;;;;8.63;37.23;102752.63;5009634;28;20293;-79
2022/03/01 09:49:22;;;;;;;6.38;5.72;;;;;;;8.85;36.63;102775.47;5009543;28;20088;-80
2022/03/01 09:51:50;;;;;;;10.90;5.90;;;;;;;8.60;35.93;102736.91;5010014;28;20093;-79
2022/03/01 09:54:18;;;;;;;7.00;5.95;;;;;;;8.89;37.30;102771.75;5009879;28;20081;-80
2022/03/01 09:56:45;;;;;;;8.00;6.20;;;;;;;9.13;37.20;102765.28;5027418;28;20132;-81
2022/03/01 09:59:11;;;;;;;6.78;6.07;;;;;;;9.26;37.04;102762.03;5010448;28;20483;-80
2022/03/01 10:01:52;;;;;;;8.80;6.40;;;;;;;9.37;37.04;102755.28;5010505;28;20144;-79
2022/03/01 10:04:20;;;;;;;7.47;6.67;;;;;;;9.33;36.30;102708.63;5006449;28;20415;-80
2022/03/01 10:06:49;;;;;;;8.75;5.82;;;;;;;9.29;36.63;102682.38;5006827;28;20085;-81
2022/03/01 10:09:19;;;;;;;7.47;6.78;;;;;;;9.33;36.33;102668.03;5008013;28;20136;-81
2022/03/01 10:11:48;;;;;;;6.47;5.72;;;;;;;9.50;36.50;102672.47;5006438;28;20496;-81
2022/03/01 10:14:15;;;;;;;6.85;5.60;;;;;;;10.14;35.67;102745.16;5008517;28;20064;-81
2022/03/01 10:16:44;;;;;;;8.07;6.18;;;;;;;9.89;35.94;102688.09;5026013;28;20050;-81
2022/03/01 10:19:19;;;;;;;8.38;6.03;;;;;;;10.29;34.60;102740.88;5026500;28;20061;-81
2022/03/01 10:21:48;;;;;;;13.80;5.68;;;;;;;10.16;35.31;102708.78;5026760;28;20523;-82
2022/03/01 10:24:19;;;;;;;6.05;5.47;;;;;;;10.52;35.42;102740.50;5029428;28;20045;-82
2022/03/01 10:26:49;;;;;;;8.60;6.72;;;;;;;10.35;34.73;102711.34;5031454;28;20076;-83
2022/03/01 10:29:42;;;;;;;8.02;6.20;;;;;;;10.63;34.04;102737.22;5030549;28;20046;-83
2022/03/01 10:32:11;;;;;;;5.72;5.22;;;;;;;10.51;35.26;102668.88;5029205;28;20471;-82
2022/03/01 10:34:39;;;;;;;6.35;5.55;;;;;;;10.79;34.15;102690.28;5029153;28;20089;-82
2022/03/01 10:37:06;;;;;;;7.72;5.70;;;;;;;10.02;34.39;102556.50;5030337;28;20052;-82
2022/03/01 10:39:33;;;;;;;7.75;5.80;;;;;;;10.98;33.98;102715.81;5028890;28;20228;-83
2022/03/01 10:42:03;;;;;;;7.18;6.07;;;;;;;10.96;34.24;102680.50;5029062;28;20049;-83
2022/03/01 10:44:30;;;;;;;8.07;6.28;;;;;;;11.39;32.92;102696.63;5029094;28;20503;-82
2022/03/01 10:47:03;;;;;;;7.18;6.47;;;;;;;11.56;33.30;102707.09;5025334;28;20057;-83
2022/03/01 10:49:32;;;;;;;6.28;5.57;;;;;;;11.62;33.82;102704.06;4992820;28;20061;-83
2022/03/01 10:52:08;;;;;;;7.05;5.75;;;;;;;11.13;33.08;102592.66;5000681;28;20385;-82
2022/03/01 10:54:38;;;;;;;6.65;6.05;;;;;;;11.89;32.53;102692.72;5009779;28;20050;-82
2022/03/01 10:57:29;;;;;;;7.97;6.15;;;;;;;11.94;32.51;102680.00;5013958;28;20092;-84
2022/03/01 10:59:56;;;;;;;5.72;5.22;;;;;;;12.12;31.80;102662.88;5019307;28;20058;-84
2022/03/01 11:02:23;;;;;;;7.20;6.47;;;;;;;12.27;31.57;102670.88;5027133;28;20057;-83
2022/03/01 11:04:51;;;;;;;7.45;6.40;;;;;;;12.28;31.39;102667.22;5030369;28;20120;-82
2022/03/01 11:07:19;;;;;;;9.70;6.68;;;;;;;12.17;31.67;102623.50;5048270;28;20061;-82
2022/03/01 11:09:51;;;;;;;9.13;6.53;;;;;;;11.67;31.72;102529.03;5022940;28;20049;-82
2022/03/01 11:12:21;;;;;;;8.43;6.55;;;;;;;12.46;31.54;102636.78;5017118;28;20049;-84
2022/03/01 11:15:19;;;;;;;10.70;6.68;;;;;;;12.75;32.04;102655.34;5019973;28;20481;-84
2022/03/01 11:18:12;;;;;;;8.10;5.78;;;;;;;12.80;30.70;102635.41;5048332;28;20489;-84
2022/03/01 11:20:44;;;;;;;12.02;6.90;;;;;;;12.83;31.05;102637.03;5029555;28;20076;-84
2022/03/01 11:23:15;;;;;;;7.53;6.80;;;;;;;12.66;30.52;102576.00;5030104;28;20049;-83
2022/03/01 11:25:47;;;;;;;12.27;6.55;;;;;;;12.78;30.80;102577.84;5048166;28;20506;-84
2022/03/01 11:28:17;;;;;;;6.60;6.00;;;;;;;13.07;30.63;102618.53;5029751;28;20379;-81
2022/03/01 11:30:47;;;;;;;9.55;6.70;;;;;;;12.89;29.63;102588.66;5028603;28;20050;-81
2022/03/01 11:33:25;;;;;;;12.25;6.22;;;;;;;12.77;30.33;102574.31;5004227;28;20041;-80
2022/03/01 11:35:57;;;;;;;5.85;5.35;;;;;;;12.54;30.21;102540.34;5010556;28;20140;-81
2022/03/01 11:38:28;;;;;;;7.13;5.22;;;;;;;12.36;30.18;102529.13;5010125;28;20137;-82